createdAt,value
2024-02-12T00:00:20.215Z,47.89
2024-02-12T00:02:50.567Z,47.65
2024-02-12T00:05:18.703Z,47.86
2024-02-12T00:07:46.785Z,47.76
2024-02-12T00:10:17.403Z,47.48
2024-02-12T00:12:48.123Z,47.50
2024-02-12T00:15:18.167Z,47.42
2024-02-12T00:17:46.328Z,47.66
2024-02-12T00:20:18.068Z,47.56
2024-02-12T00:22:47.145Z,47.39
2024-02-12T00:25:17.351Z,47.36
2024-02-12T00:27:45.339Z,47.27
2024-02-12T00:30:17.232Z,47.21
2024-02-12T00:32:45.643Z,47.20
2024-02-12T00:35:17.010Z,47.41
2024-02-12T00:37:45.088Z,47.28
2024-02-12T00:40:16.389Z,47.16
2024-02-12T00:42:45.786Z,47.19
2024-02-12T00:45:14.157Z,47.13
2024-02-12T00:47:42.558Z,46.99
2024-02-12T00:50:11.510Z,47.00
2024-02-12T00:52:40.897Z,47.18
2024-02-12T00:55:11.704Z,47.17
2024-02-12T00:57:39.713Z,47.05
2024-02-12T01:00:14.267Z,47.08
2024-02-12T01:02:43.606Z,46.87
2024-02-12T01:05:12.551Z,47.02
2024-02-12T01:07:43.024Z,46.82
2024-02-12T01:10:12.186Z,46.88
2024-02-12T01:12:41.507Z,46.96
2024-02-12T01:15:11.752Z,46.91
2024-02-12T01:17:44.826Z,46.77
2024-02-12T01:20:24.258Z,46.88
2024-02-12T01:22:54.135Z,46.83
2024-02-12T01:25:22.892Z,46.91
2024-02-12T01:27:54.783Z,46.71
2024-02-12T01:30:23.512Z,46.76
2024-02-12T01:32:55.272Z,46.78
2024-02-12T01:35:23.391Z,46.83
2024-02-12T01:37:53.645Z,46.73
2024-02-12T01:40:21.880Z,46.72
2024-02-12T01:42:51.303Z,46.80
2024-02-12T01:45:25.510Z,46.72
2024-02-12T01:47:59.592Z,46.61
2024-02-12T01:50:29.601Z,46.49
2024-02-12T01:52:59.076Z,46.65
2024-02-12T01:55:28.026Z,46.70
2024-02-12T01:57:56.166Z,46.61
2024-02-12T02:00:24.735Z,46.61
2024-02-12T02:02:55.821Z,46.53
2024-02-12T02:05:27.153Z,46.54
2024-02-12T02:07:58.439Z,46.51
2024-02-12T02:10:28.222Z,46.52
2024-02-12T02:12:58.049Z,46.43
2024-02-12T02:15:26.966Z,46.46
2024-02-12T02:17:58.262Z,46.39
2024-02-12T02:20:28.155Z,46.54
2024-02-12T02:22:57.644Z,46.47
2024-02-12T02:25:27.050Z,46.57
2024-02-12T02:27:57.049Z,46.33
2024-02-12T02:30:25.059Z,46.37
2024-02-12T02:32:53.604Z,46.28
2024-02-12T02:35:21.727Z,46.37
2024-02-12T02:38:03.150Z,46.48
2024-02-12T02:40:32.724Z,46.38
2024-02-12T02:43:02.123Z,46.48
2024-02-12T02:45:30.300Z,46.49
2024-02-12T02:47:58.476Z,46.33
2024-02-12T02:50:28.128Z,46.53
2024-02-12T02:52:56.308Z,46.33
2024-02-12T02:55:25.924Z,46.28
2024-02-12T02:58:03.176Z,46.51
2024-02-12T03:00:31.457Z,46.43
2024-02-12T03:02:59.503Z,46.36
2024-02-12T03:05:28.726Z,46.30
2024-02-12T03:08:03.919Z,46.29
2024-02-12T03:10:32.428Z,46.34
2024-02-12T03:13:01.910Z,46.35
2024-02-12T03:15:30.927Z,46.25
2024-02-12T03:18:00.519Z,46.35
2024-02-12T03:20:34.272Z,46.32
2024-02-12T03:23:02.699Z,46.33
2024-02-12T03:25:30.759Z,46.04
2024-02-12T03:27:58.848Z,46.22
2024-02-12T03:30:28.420Z,46.05
2024-02-12T03:33:03.230Z,46.12
2024-02-12T03:35:34.290Z,46.43
2024-02-12T03:38:02.445Z,47.02
2024-02-12T03:40:30.502Z,47.20
2024-02-12T03:42:58.581Z,47.43
2024-02-12T03:45:27.873Z,47.63
2024-02-12T03:48:01.585Z,47.77
2024-02-12T03:50:47.056Z,48.00
2024-02-12T03:53:29.228Z,47.93
2024-02-12T03:56:15.392Z,48.01
2024-02-12T03:59:00.954Z,48.00
2024-02-12T04:01:33.071Z,48.05
2024-02-12T04:04:01.137Z,48.05
2024-02-12T04:06:35.742Z,48.07
2024-02-12T04:09:03.943Z,47.99
2024-02-12T04:11:33.113Z,47.92
2024-02-12T04:14:01.752Z,47.81
2024-02-12T04:16:29.820Z,47.66
2024-02-12T04:18:59.521Z,47.51
2024-02-12T04:21:30.854Z,47.61
2024-02-12T04:23:59.202Z,47.43
2024-02-12T04:26:29.689Z,47.36
2024-02-12T04:29:01.380Z,47.54
2024-02-12T04:31:29.504Z,47.44
2024-02-12T04:34:01.344Z,47.31
2024-02-12T04:36:29.385Z,47.44
2024-02-12T04:39:01.864Z,47.34
2024-02-12T04:41:29.858Z,47.11
2024-02-12T04:44:00.608Z,47.19
2024-02-12T04:46:28.624Z,47.11
2024-02-12T04:48:58.381Z,47.08
2024-02-12T04:51:29.696Z,47.20
2024-02-12T04:54:00.314Z,46.96
2024-02-12T04:56:28.781Z,46.88
2024-02-12T04:58:58.477Z,46.64
2024-02-12T05:01:28.469Z,46.50
2024-02-12T05:04:02.540Z,46.57
2024-02-12T05:06:33.842Z,46.50
2024-02-12T05:09:05.379Z,46.39
2024-02-12T05:11:35.198Z,46.37
2024-02-12T05:14:03.419Z,46.15
2024-02-12T05:16:32.053Z,46.34
2024-02-12T05:19:17.983Z,46.86
2024-02-12T05:22:05.016Z,46.69
2024-02-12T05:24:33.614Z,47.11
2024-02-12T05:27:02.737Z,47.12
2024-02-12T05:29:31.115Z,47.18
2024-02-12T05:31:59.898Z,47.13
2024-02-12T05:34:28.340Z,47.30
2024-02-12T05:36:57.671Z,47.17
2024-02-12T05:39:26.444Z,46.91
2024-02-12T05:41:54.348Z,46.98
2024-02-12T05:44:24.921Z,46.97
2024-02-12T05:46:53.082Z,46.86
2024-02-12T05:49:26.404Z,46.72
2024-02-12T05:51:56.328Z,46.67
2024-02-12T05:54:26.556Z,46.73
2024-02-12T05:56:55.493Z,46.90
2024-02-12T05:59:23.515Z,46.66
2024-02-12T06:01:54.133Z,47.09
2024-02-12T06:04:22.215Z,47.22
2024-02-12T06:06:50.330Z,47.40
2024-02-12T06:09:21.219Z,47.07
2024-02-12T06:11:50.666Z,46.94
2024-02-12T06:14:19.383Z,46.82
2024-02-12T06:16:47.525Z,46.64
2024-02-12T06:19:15.811Z,46.48
2024-02-12T06:21:46.509Z,46.51
2024-02-12T06:24:16.305Z,46.52
2024-02-12T06:26:44.870Z,46.45
2024-02-12T06:29:16.546Z,46.35
2024-02-12T06:31:46.296Z,46.36
2024-02-12T06:34:14.540Z,46.25
2024-02-12T06:36:42.626Z,46.27
2024-02-12T06:39:10.684Z,46.33
2024-02-12T06:41:38.613Z,46.14
2024-02-12T06:44:06.884Z,46.20
2024-02-12T06:46:36.201Z,45.92
2024-02-12T06:49:05.059Z,46.04
2024-02-12T06:51:33.365Z,46.11
2024-02-12T06:54:01.390Z,46.21
2024-02-12T06:56:30.176Z,47.18
2024-02-12T06:58:58.190Z,46.57
2024-02-12T07:01:28.457Z,45.78
2024-02-12T07:03:58.841Z,46.19
2024-02-12T07:06:26.935Z,46.11
2024-02-12T07:08:54.930Z,46.00
2024-02-12T07:11:22.917Z,46.08
2024-02-12T07:13:50.925Z,45.94
2024-02-12T07:16:19.578Z,45.82
2024-02-12T07:18:48.107Z,45.77
2024-02-12T07:21:18.867Z,45.83
2024-02-12T07:23:49.110Z,45.83
2024-02-12T07:26:17.145Z,45.91
2024-02-12T07:28:50.441Z,46.01
2024-02-12T07:31:18.587Z,45.89
2024-02-12T07:33:46.749Z,45.88
2024-02-12T07:36:14.897Z,46.01
2024-02-12T07:38:44.544Z,45.93
2024-02-12T07:41:15.037Z,45.94
2024-02-12T07:43:46.097Z,45.95
2024-02-12T07:46:15.949Z,45.94
2024-02-12T07:48:44.380Z,45.86
2024-02-12T07:51:12.755Z,45.99
2024-02-12T07:53:41.801Z,45.83
2024-02-12T07:56:14.767Z,45.88
2024-02-12T07:58:45.456Z,45.92
2024-02-12T08:01:13.402Z,45.88
2024-02-12T08:03:44.970Z,45.84
2024-02-12T08:06:14.305Z,45.80
2024-02-12T08:08:43.262Z,45.93
2024-02-12T08:11:12.739Z,45.94
2024-02-12T08:13:40.773Z,45.92
2024-02-12T08:16:10.314Z,45.84
2024-02-12T08:18:38.530Z,45.86
2024-02-12T08:21:07.171Z,45.80
2024-02-12T08:23:36.224Z,45.89
2024-02-12T08:26:08.181Z,45.82
2024-02-12T08:28:37.622Z,45.94
2024-02-12T08:31:05.646Z,46.05
2024-02-12T08:33:42.924Z,45.88
2024-02-12T08:36:11.030Z,45.87
2024-02-12T08:38:39.434Z,45.87
2024-02-12T08:41:07.585Z,45.93
2024-02-12T08:43:36.935Z,45.91
2024-02-12T08:46:05.168Z,45.87
2024-02-12T08:48:33.216Z,45.93
2024-02-12T08:51:01.277Z,45.93
2024-02-12T08:53:34.557Z,45.88
2024-02-12T08:56:02.652Z,45.82
2024-02-12T08:58:33.462Z,45.91
2024-02-12T09:01:03.314Z,45.95
2024-02-12T09:03:31.596Z,45.85
2024-02-12T09:05:59.585Z,45.86
2024-02-12T09:08:27.701Z,46.06
2024-02-12T09:10:56.676Z,46.01
2024-02-12T09:13:25.190Z,45.97
2024-02-12T09:15:53.955Z,46.28
2024-02-12T09:18:23.471Z,46.48
2024-02-12T09:20:53.986Z,46.33
2024-02-12T09:23:25.458Z,46.34
2024-02-12T09:25:53.653Z,46.35
2024-02-12T09:28:28.305Z,46.45
2024-02-12T09:30:58.818Z,46.30
2024-02-12T09:33:30.793Z,46.29
2024-02-12T09:35:59.025Z,46.24
2024-02-12T09:38:28.443Z,46.21
2024-02-12T09:40:59.097Z,45.90
2024-02-12T09:43:27.893Z,46.05
2024-02-12T09:45:56.938Z,46.50
2024-02-12T09:48:26.426Z,47.36
2024-02-12T09:50:56.288Z,47.11
2024-02-12T09:53:25.835Z,47.12
2024-02-12T09:55:57.061Z,46.73
2024-02-12T09:58:25.102Z,46.53
2024-02-12T10:00:55.194Z,46.57
2024-02-12T10:03:23.233Z,46.75
2024-02-12T10:05:51.697Z,46.68
2024-02-12T10:08:22.935Z,46.64
2024-02-12T10:10:54.817Z,46.62
2024-02-12T10:13:24.882Z,46.69
2024-02-12T10:15:56.969Z,46.79
2024-02-12T10:18:25.154Z,46.59
2024-02-12T10:20:53.230Z,46.74
2024-02-12T10:23:22.666Z,46.81
2024-02-12T10:25:52.501Z,46.64
2024-02-12T10:28:23.055Z,46.72
2024-02-12T10:30:51.172Z,46.76
2024-02-12T10:33:19.460Z,46.80
2024-02-12T10:35:52.447Z,46.88
2024-02-12T10:38:21.793Z,46.80
2024-02-12T10:41:05.392Z,46.87
2024-02-12T10:43:36.006Z,46.76
2024-02-12T10:46:05.817Z,46.66
2024-02-12T10:48:37.314Z,46.77
2024-02-12T10:51:06.523Z,46.86
2024-02-12T10:53:40.744Z,46.72
2024-02-12T10:56:11.023Z,46.71
2024-02-12T10:58:40.118Z,46.75
2024-02-12T11:01:13.882Z,46.42
2024-02-12T11:03:43.729Z,46.71
2024-02-12T11:06:13.300Z,46.80
2024-02-12T11:08:42.887Z,47.29
2024-02-12T11:11:20.770Z,46.88
2024-02-12T11:13:49.875Z,46.87
2024-02-12T11:16:21.395Z,47.26
2024-02-12T11:18:56.048Z,47.11
2024-02-12T11:21:27.334Z,47.46
2024-02-12T11:24:04.043Z,47.02
2024-02-12T11:26:39.253Z,47.29
2024-02-12T11:29:08.002Z,47.25
2024-02-12T11:31:40.080Z,47.48
2024-02-12T11:34:14.577Z,47.31
2024-02-12T11:36:43.775Z,47.22
2024-02-12T11:39:12.378Z,47.29
2024-02-12T11:41:42.050Z,47.48
2024-02-12T11:44:10.385Z,47.22
2024-02-12T11:46:39.762Z,47.67
2024-02-12T11:49:09.071Z,47.85
2024-02-12T11:51:38.489Z,47.75
2024-02-12T11:54:07.872Z,47.73
2024-02-12T11:56:36.272Z,47.76
2024-02-12T11:59:06.883Z,47.86
2024-02-12T12:01:36.712Z,47.70
2024-02-12T12:04:05.173Z,47.72
2024-02-12T12:06:35.274Z,47.62
2024-02-12T12:09:06.528Z,47.34
2024-02-12T12:11:34.802Z,47.21
2024-02-12T12:14:08.138Z,47.14
2024-02-12T12:16:37.581Z,46.94
2024-02-12T12:19:07.235Z,46.95
2024-02-12T12:21:36.714Z,46.87
2024-02-12T12:24:12.565Z,46.92
2024-02-12T12:26:41.036Z,46.82
2024-02-12T12:29:11.505Z,46.89
2024-02-12T12:31:39.676Z,46.88
2024-02-12T12:34:08.043Z,46.97
2024-02-12T12:36:36.929Z,46.71
2024-02-12T12:39:06.322Z,46.68
2024-02-12T12:41:36.018Z,46.59
2024-02-12T12:44:04.584Z,46.63
2024-02-12T12:46:36.105Z,46.67
2024-02-12T12:49:05.456Z,46.52
2024-02-12T12:51:33.594Z,46.58
2024-02-12T12:54:01.576Z,46.72
2024-02-12T12:56:29.592Z,46.68
2024-02-12T12:58:58.019Z,46.60
2024-02-12T13:01:26.400Z,46.57
2024-02-12T13:03:55.803Z,46.70
2024-02-12T13:06:24.308Z,46.43
2024-02-12T13:08:52.348Z,46.33
2024-02-12T13:11:20.399Z,46.34
2024-02-12T13:13:48.375Z,46.31
2024-02-12T13:16:18.894Z,46.52
2024-02-12T13:18:47.176Z,46.28
2024-02-12T13:21:17.156Z,46.18
2024-02-12T13:23:46.059Z,46.31
2024-02-12T13:26:15.567Z,46.19
2024-02-12T13:28:43.958Z,46.08
2024-02-12T13:31:14.547Z,46.05
2024-02-12T13:33:45.007Z,45.89
2024-02-12T13:36:13.191Z,45.90
2024-02-12T13:38:48.400Z,45.69
2024-02-12T13:41:16.805Z,45.80
2024-02-12T13:43:45.913Z,45.79
2024-02-12T13:46:13.938Z,45.64
2024-02-12T13:48:43.862Z,45.28
2024-02-12T13:51:11.941Z,45.31
2024-02-12T13:53:39.930Z,45.35
2024-02-12T13:56:09.394Z,45.33
2024-02-12T13:58:37.359Z,45.25
2024-02-12T14:01:16.609Z,45.31
2024-02-12T14:03:55.257Z,45.28
2024-02-12T14:06:23.425Z,45.21
2024-02-12T14:08:54.488Z,45.27
2024-02-12T14:11:29.317Z,45.20
2024-02-12T14:13:57.359Z,45.09
2024-02-12T14:16:25.353Z,44.96
2024-02-12T14:18:54.512Z,44.85
2024-02-12T14:21:25.615Z,44.93
2024-02-12T14:23:53.685Z,44.86
2024-02-12T14:26:22.898Z,44.77
2024-02-12T14:28:55.262Z,44.85
2024-02-12T14:31:24.346Z,44.86
2024-02-12T14:33:52.723Z,44.70
2024-02-12T14:36:22.978Z,44.62
2024-02-12T14:38:51.281Z,44.75
2024-02-12T14:41:19.443Z,44.67
2024-02-12T14:43:47.721Z,44.57
2024-02-12T14:46:17.545Z,44.49
2024-02-12T14:48:45.930Z,44.63
2024-02-12T14:51:14.620Z,44.60
2024-02-12T14:53:42.682Z,44.43
2024-02-12T14:56:13.629Z,44.47
2024-02-12T14:58:42.233Z,44.42
2024-02-12T15:01:14.115Z,44.28
2024-02-12T15:03:44.218Z,44.53
2024-02-12T15:06:12.759Z,44.45
2024-02-12T15:08:42.161Z,44.37
2024-02-12T15:11:10.988Z,44.32
2024-02-12T15:13:38.984Z,44.22
2024-02-12T15:16:11.369Z,44.32
2024-02-12T15:18:43.969Z,43.98
2024-02-12T15:21:12.177Z,44.25
2024-02-12T15:23:40.605Z,44.17
2024-02-12T15:26:09.379Z,44.36
2024-02-12T15:28:37.610Z,44.24
2024-02-12T15:31:05.814Z,44.11
2024-02-12T15:33:34.164Z,44.16
2024-02-12T15:36:05.654Z,44.00
2024-02-12T15:38:35.151Z,44.08
2024-02-12T15:41:04.547Z,43.97
2024-02-12T15:43:32.705Z,43.96
2024-02-12T15:46:05.100Z,43.95
2024-02-12T15:48:34.115Z,43.92
2024-02-12T15:51:04.918Z,44.01
2024-02-12T15:53:32.987Z,43.96
2024-02-12T15:56:01.044Z,43.90
2024-02-12T15:58:29.343Z,43.71
2024-02-12T16:01:01.317Z,43.85
2024-02-12T16:03:29.437Z,43.58
2024-02-12T16:06:12.534Z,43.68
2024-02-12T16:08:45.766Z,43.71
2024-02-12T16:11:20.908Z,43.50
2024-02-12T16:13:53.328Z,43.75
2024-02-12T16:16:26.496Z,43.67
2024-02-12T16:18:56.917Z,43.51
2024-02-12T16:21:27.202Z,43.34
2024-02-12T16:23:56.080Z,43.41
2024-02-12T16:26:26.195Z,43.36
2024-02-12T16:28:55.138Z,43.38
2024-02-12T16:31:23.097Z,43.37
2024-02-12T16:33:52.369Z,43.22
2024-02-12T16:36:20.902Z,43.49
2024-02-12T16:38:54.347Z,43.28
2024-02-12T16:41:25.734Z,43.16
2024-02-12T16:43:56.742Z,43.33
2024-02-12T16:46:24.756Z,43.28
2024-02-12T16:48:53.109Z,43.28
2024-02-12T16:51:21.327Z,43.17
2024-02-12T16:53:49.480Z,43.26
2024-02-12T16:56:18.956Z,43.31
2024-02-12T16:58:46.967Z,43.22
2024-02-12T17:01:15.021Z,43.13
2024-02-12T17:03:48.553Z,43.38
2024-02-12T17:06:20.791Z,43.29
2024-02-12T17:08:50.146Z,43.33
2024-02-12T17:11:19.925Z,43.50
2024-02-12T17:13:48.895Z,43.62
2024-02-12T17:16:26.445Z,43.73
2024-02-12T17:19:04.771Z,43.73
2024-02-12T17:21:32.869Z,43.89
2024-02-12T17:24:00.914Z,43.75
2024-02-12T17:26:30.396Z,43.61
2024-02-12T17:28:58.962Z,43.62
2024-02-12T17:31:29.536Z,43.68
2024-02-12T17:33:57.597Z,43.58
2024-02-12T17:36:25.693Z,43.79
2024-02-12T17:38:53.748Z,43.62
2024-02-12T17:41:21.797Z,43.67
2024-02-12T17:43:51.362Z,43.47
2024-02-12T17:46:19.578Z,43.42
2024-02-12T17:48:48.180Z,43.37
2024-02-12T17:51:16.381Z,43.39
2024-02-12T17:53:44.548Z,43.37
2024-02-12T17:56:15.404Z,43.36
2024-02-12T17:58:45.286Z,43.18
2024-02-12T18:01:15.792Z,43.34
2024-02-12T18:03:44.109Z,43.26
2024-02-12T18:06:12.356Z,43.15
2024-02-12T18:08:40.449Z,43.28
2024-02-12T18:11:08.485Z,43.22
2024-02-12T18:13:36.507Z,43.16
2024-02-12T18:16:04.487Z,44.21
2024-02-12T18:18:35.759Z,43.39
2024-02-12T18:21:03.864Z,43.33
2024-02-12T18:23:31.924Z,43.48
2024-02-12T18:26:01.076Z,43.35
2024-02-12T18:28:30.280Z,43.48
2024-02-12T18:30:58.633Z,43.39
2024-02-12T18:33:26.704Z,44.38
2024-02-12T18:35:56.182Z,43.57
2024-02-12T18:38:24.285Z,43.42
2024-02-12T18:40:53.357Z,43.57
2024-02-12T18:43:23.327Z,43.60
2024-02-12T18:45:51.541Z,43.46
2024-02-12T18:48:19.752Z,43.41
2024-02-12T18:50:48.286Z,43.19
2024-02-12T18:53:21.040Z,43.49
2024-02-12T18:55:50.411Z,43.39
2024-02-12T18:58:18.376Z,43.48
2024-02-12T19:00:46.460Z,43.50
2024-02-12T19:03:17.360Z,43.29
2024-02-12T19:05:48.242Z,43.40
2024-02-12T19:08:17.810Z,43.38
2024-02-12T19:10:45.908Z,43.32
2024-02-12T19:13:14.004Z,43.45
2024-02-12T19:15:42.393Z,43.70
2024-02-12T19:18:10.565Z,43.71
2024-02-12T19:20:38.903Z,43.31
2024-02-12T19:23:09.177Z,44.30
2024-02-12T19:25:38.723Z,44.00
2024-02-12T19:28:10.826Z,44.03
2024-02-12T19:30:39.212Z,44.40
2024-02-12T19:33:07.377Z,44.27
2024-02-12T19:35:38.095Z,44.08
2024-02-12T19:38:08.997Z,44.14
2024-02-12T19:40:38.559Z,43.93
2024-02-12T19:43:09.358Z,43.95
2024-02-12T19:45:37.552Z,43.86
2024-02-12T19:48:06.492Z,43.89
2024-02-12T19:50:34.624Z,43.80
2024-02-12T19:53:02.635Z,43.81
2024-02-12T19:55:32.823Z,43.84
2024-02-12T19:58:02.736Z,43.63
2024-02-12T20:00:34.538Z,43.77
2024-02-12T20:03:07.622Z,43.71
2024-02-12T20:05:36.587Z,43.66
2024-02-12T20:08:05.567Z,43.85
2024-02-12T20:10:33.668Z,43.66
2024-02-12T20:13:06.982Z,43.77
2024-02-12T20:15:36.503Z,43.52
2024-02-12T20:18:06.542Z,43.61
2024-02-12T20:20:35.286Z,43.65
2024-02-12T20:23:07.849Z,43.75
2024-02-12T20:25:36.171Z,43.56
2024-02-12T20:28:07.565Z,43.51
2024-02-12T20:30:35.876Z,43.60
2024-02-12T20:33:07.216Z,43.35
2024-02-12T20:35:35.414Z,43.58
2024-02-12T20:38:04.128Z,43.64
2024-02-12T20:40:32.954Z,43.29
2024-02-12T20:43:01.407Z,43.35
2024-02-12T20:45:30.748Z,43.49
2024-02-12T20:47:58.937Z,43.40
2024-02-12T20:50:29.190Z,43.44
2024-02-12T20:52:59.913Z,43.40
2024-02-12T20:55:27.988Z,43.52
2024-02-12T20:57:57.358Z,43.37
2024-02-12T21:00:25.555Z,43.43
2024-02-12T21:02:55.031Z,43.52
2024-02-12T21:05:23.070Z,43.24
2024-02-12T21:07:52.300Z,43.29
2024-02-12T21:10:20.310Z,43.30
2024-02-12T21:12:48.290Z,43.14
2024-02-12T21:15:18.851Z,42.97
2024-02-12T21:17:50.008Z,42.83
2024-02-12T21:20:19.547Z,42.92
2024-02-12T21:22:47.569Z,42.81
2024-02-12T21:25:16.090Z,42.58
2024-02-12T21:27:45.628Z,42.39
2024-02-12T21:30:14.869Z,42.56
2024-02-12T21:32:44.059Z,42.44
2024-02-12T21:35:13.048Z,42.30
2024-02-12T21:37:42.740Z,42.32
2024-02-12T21:40:16.366Z,42.23
2024-02-12T21:42:45.512Z,42.03
2024-02-12T21:45:18.739Z,42.22
2024-02-12T21:47:48.274Z,41.92
2024-02-12T21:50:17.853Z,42.00
2024-02-12T21:52:48.590Z,41.91
2024-02-12T21:55:16.693Z,41.82
2024-02-12T21:57:48.608Z,41.72
2024-02-12T22:00:18.136Z,41.65
2024-02-12T22:02:46.395Z,41.62
2024-02-12T22:05:14.861Z,41.56
2024-02-12T22:07:42.842Z,41.56
2024-02-12T22:10:12.744Z,41.30
2024-02-12T22:12:43.518Z,41.26
2024-02-12T22:15:14.368Z,41.63
2024-02-12T22:17:43.216Z,41.46
2024-02-12T22:20:15.866Z,41.25
2024-02-12T22:22:44.152Z,41.16
2024-02-12T22:25:15.937Z,41.29
2024-02-12T22:27:43.954Z,41.14
2024-02-12T22:30:13.322Z,41.21
2024-02-12T22:32:41.347Z,41.02
2024-02-12T22:35:10.165Z,41.01
2024-02-12T22:37:39.176Z,40.98
2024-02-12T22:40:08.796Z,41.02
2024-02-12T22:42:38.205Z,41.02
2024-02-12T22:45:07.338Z,40.95
2024-02-12T22:47:38.056Z,40.97
2024-02-12T22:50:07.328Z,40.62
2024-02-12T22:52:35.373Z,40.81
2024-02-12T22:55:03.671Z,40.80
2024-02-12T22:57:31.688Z,40.80
2024-02-12T23:00:01.174Z,40.99
2024-02-12T23:02:31.726Z,41.07
2024-02-12T23:04:59.736Z,40.86
2024-02-12T23:07:27.817Z,40.91
2024-02-12T23:09:56.355Z,40.91
2024-02-12T23:12:26.383Z,40.92
2024-02-12T23:14:57.503Z,40.84
2024-02-12T23:17:27.535Z,40.92
2024-02-12T23:19:58.317Z,40.83
2024-02-12T23:22:26.586Z,40.77
2024-02-12T23:24:54.621Z,40.89
2024-02-12T23:27:22.624Z,40.85
2024-02-12T23:29:53.009Z,41.01
2024-02-12T23:32:22.413Z,40.87
2024-02-12T23:34:52.912Z,40.82
2024-02-12T23:37:20.964Z,40.85
2024-02-12T23:39:48.947Z,40.74
2024-02-12T23:42:19.877Z,40.83
2024-02-12T23:44:48.496Z,40.81
2024-02-12T23:47:16.673Z,40.84
2024-02-12T23:49:46.906Z,41.07
2024-02-12T23:52:18.307Z,41.21
2024-02-12T23:54:46.315Z,40.96
2024-02-12T23:57:15.645Z,40.87
2024-02-12T23:59:45.377Z,40.82
